Time;durP1;ratioP1;P1;durP2;ratioP2;P2;SDS_P1;SDS_P2;PMS_P1;PMS_P2;Temp;Humidity;BMP_temperature;BMP_pressure;BME280_temperature;BME280_humidity;BME280_pressure;Samples;Min_cycle;Max_cycle;Signal;HPM_P1;HPM_P2
2023/06/21 00:00:46;;;;;;;11.00;3.85;;;;;;;21.67;100.00;100557.53;4987553;28;20532;-73
2023/06/21 00:03:12;;;;;;;7.75;5.13;;;;;;;21.46;100.00;100520.13;4986694;28;20469;-72
2023/06/21 00:05:38;;;;;;;5.65;4.47;;;;;;;21.57;100.00;100556.19;4986277;28;20426;-73
2023/06/21 00:08:04;;;;;;;6.93;4.38;;;;;;;21.65;100.00;100556.72;4987491;28;20033;-73
2023/06/21 00:10:30;;;;;;;7.13;4.18;;;;;;;21.57;100.00;100556.19;5018892;28;20038;-73
2023/06/21 00:12:56;;;;;;;8.77;5.50;;;;;;;21.63;100.00;100545.22;4987544;28;20545;-72
2023/06/21 00:15:23;;;;;;;5.57;3.65;;;;;;;21.58;100.00;100553.44;4987548;28;20038;-72
2023/06/21 00:17:48;;;;;;;5.32;3.63;;;;;;;21.52;100.00;100540.38;4986768;28;20066;-73
2023/06/21 00:20:14;;;;;;;7.20;5.65;;;;;;;21.66;100.00;100570.03;4987698;28;20768;-73
2023/06/21 00:22:41;;;;;;;9.30;6.13;;;;;;;21.66;100.00;100566.50;4985186;28;20497;-73
2023/06/21 00:25:07;;;;;;;13.10;5.15;;;;;;;21.07;100.00;100464.84;4985837;28;20041;-73
2023/06/21 00:27:36;;;;;;;6.53;4.55;;;;;;;21.34;100.00;100517.97;4985810;28;20095;-71
2023/06/21 00:30:02;;;;;;;10.95;4.28;;;;;;;20.88;100.00;100439.88;4987143;28;20060;-72
2023/06/21 00:32:27;;;;;;;6.88;4.28;;;;;;;21.53;100.00;100563.47;4987326;28;20482;-73
2023/06/21 00:34:53;;;;;;;8.20;5.20;;;;;;;21.67;100.00;100566.41;4985733;28;20482;-72
2023/06/21 00:37:18;;;;;;;8.00;4.03;;;;;;;21.15;100.00;100471.66;4987041;28;20545;-73
2023/06/21 00:39:44;;;;;;;8.40;4.10;;;;;;;21.55;100.00;100540.22;4987540;28;20038;-72
2023/06/21 00:42:10;;;;;;;5.65;3.83;;;;;;;21.18;100.00;100499.06;4985822;28;20026;-72
2023/06/21 00:44:36;;;;;;;10.32;4.68;;;;;;;20.92;100.00;100454.81;4987548;28;20030;-72
2023/06/21 00:47:02;;;;;;;10.48;4.70;;;;;;;21.49;100.00;100549.38;4987072;28;20038;-73
2023/06/21 00:49:28;;;;;;;5.30;3.40;;;;;;;20.96;100.00;100451.09;4987109;28;20136;-73
2023/06/21 00:51:57;;;;;;;11.90;4.38;;;;;;;21.42;100.00;100541.69;4984582;28;20037;-72
2023/06/21 00:54:30;;;;;;;9.45;4.45;;;;;;;21.40;100.00;100548.88;4985623;28;20054;-72
2023/06/21 00:56:58;;;;;;;6.90;4.57;;;;;;;21.22;100.00;100531.84;4987244;28;20060;-72
2023/06/21 00:59:27;;;;;;;11.23;5.43;;;;;;;20.64;100.00;100442.63;4987232;28;20081;-73
2023/06/21 01:01:57;;;;;;;4.18;3.30;;;;;;;20.71;100.00;100450.38;4985662;28;20038;-72
2023/06/21 01:04:24;;;;;;;8.18;5.13;;;;;;;20.61;100.00;100453.44;4986897;28;20026;-71
2023/06/21 01:07:03;;;;;;;7.57;4.63;;;;;;;21.33;100.00;100555.41;4985879;28;20112;-72
2023/06/21 01:10:12;;;;;;;6.03;4.22;;;;;;;21.30;100.00;100545.72;4987288;28;20355;-72
2023/06/21 01:13:04;;;;;;;8.38;4.82;;;;;;;21.41;100.00;100556.84;4985554;28;20034;-72
2023/06/21 01:15:38;;;;;;;6.07;3.92;;;;;;;20.60;100.00;100442.81;4990313;28;20049;-73
2023/06/21 01:18:06;;;;;;;7.05;4.45;;;;;;;20.99;100.00;100512.31;4990948;28;20034;-72
2023/06/21 01:20:34;;;;;;;14.90;6.18;;;;;;;20.48;100.00;100424.63;4990713;28;20046;-72
2023/06/21 01:23:29;;;;;;;6.18;4.60;;;;;;;21.26;100.00;100552.16;4991080;28;20041;-73
2023/06/21 01:26:28;;;;;;;5.38;3.78;;;;;;;21.10;100.00;100549.25;4990900;28;20038;-72
2023/06/21 01:29:06;;;;;;;7.25;5.35;;;;;;;21.16;100.00;100553.44;4990942;28;20038;-73
2023/06/21 01:31:33;;;;;;;8.75;4.97;;;;;;;20.92;100.00;100533.97;4990561;28;20038;-73
2023/06/21 01:34:00;;;;;;;7.75;4.82;;;;;;;20.44;100.00;100459.41;4990516;28;20077;-73
2023/06/21 01:36:26;;;;;;;9.10;4.93;;;;;;;20.95;100.00;100553.38;4990296;28;20080;-72
2023/06/21 01:38:55;;;;;;;6.85;3.78;;;;;;;21.01;100.00;100569.16;4989857;28;20042;-72
2023/06/21 01:41:20;;;;;;;9.75;4.53;;;;;;;20.96;100.00;100556.94;4990473;28;20049;-72
2023/06/21 01:43:46;;;;;;;6.68;3.80;;;;;;;19.03;100.00;100238.53;4990141;28;20057;-72
2023/06/21 01:46:14;;;;;;;10.82;3.85;;;;;;;20.92;100.00;100574.00;4990296;28;20068;-73
2023/06/21 01:48:42;;;;;;;8.25;4.38;;;;;;;20.28;100.00;100468.94;4989993;28;20501;-73
2023/06/21 01:51:09;;;;;;;5.78;3.67;;;;;;;20.86;100.00;100565.31;4989755;28;20125;-72
2023/06/21 01:53:36;;;;;;;6.47;4.18;;;;;;;20.69;100.00;100566.91;5021089;28;20050;-72
2023/06/21 01:56:07;;;;;;;6.25;4.35;;;;;;;20.44;100.00;100549.19;4989682;28;20054;-72
2023/06/21 01:58:32;;;;;;;13.45;5.57;;;;;;;19.69;100.00;100440.13;4989436;28;20406;-72
2023/06/21 02:00:59;;;;;;;7.88;4.88;;;;;;;20.07;100.00;100523.94;4989964;28;20031;-72
2023/06/21 02:03:27;;;;;;;8.77;5.60;;;;;;;20.13;100.00;100507.69;4990155;28;20497;-71
2023/06/21 02:05:54;;;;;;;7.70;4.55;;;;;;;19.98;100.00;100487.84;4990242;28;20056;-72
2023/06/21 02:08:21;;;;;;;6.93;4.70;;;;;;;19.95;100.00;100471.13;4989889;28;20026;-72
2023/06/21 02:10:47;;;;;;;8.07;4.57;;;;;;;20.47;100.00;100570.38;4989672;28;20030;-73
2023/06/21 02:13:16;;;;;;;7.03;5.25;;;;;;;19.67;100.00;100440.16;4991449;28;20378;-72
2023/06/21 02:15:42;;;;;;;8.38;5.65;;;;;;;19.66;100.00;100449.06;4990989;28;20039;-72
2023/06/21 02:18:10;;;;;;;8.40;5.63;;;;;;;19.79;100.00;100484.16;4988114;28;20041;-71
2023/06/21 02:20:38;;;;;;;9.75;5.35;;;;;;;19.89;100.00;100501.50;4988903;28;20101;-73
2023/06/21 02:23:04;;;;;;;7.13;5.15;;;;;;;19.61;100.00;100467.00;4987842;28;20038;-72
2023/06/21 02:25:30;;;;;;;10.20;5.50;;;;;;;20.17;100.00;100556.41;4986426;28;20037;-73
2023/06/21 02:27:55;;;;;;;7.53;4.78;;;;;;;20.23;100.00;100570.38;4978396;28;20034;-72
2023/06/21 02:30:22;;;;;;;8.27;5.40;;;;;;;20.19;100.00;100574.09;4987683;28;20501;-73
2023/06/21 02:32:47;;;;;;;7.57;5.03;;;;;;;20.28;100.00;100586.22;4988936;28;20445;-72
2023/06/21 02:35:13;;;;;;;6.88;5.60;;;;;;;19.69;100.00;100504.03;4987568;28;20084;-73
2023/06/21 02:37:39;;;;;;;11.95;4.88;;;;;;;20.16;100.00;100605.31;4989046;28;20037;-72
2023/06/21 02:40:11;;;;;;;11.15;5.70;;;;;;;20.16;100.00;100597.31;4988634;28;20031;-72
2023/06/21 02:42:37;;;;;;;8.30;5.77;;;;;;;19.90;100.00;100564.50;4987722;28;20023;-72
2023/06/21 02:45:02;;;;;;;7.65;4.80;;;;;;;19.97;100.00;100589.09;4988772;28;20041;-72
2023/06/21 02:47:28;;;;;;;8.73;5.75;;;;;;;19.39;100.00;100486.41;4988841;28;20046;-73
2023/06/21 02:49:53;;;;;;;7.68;4.80;;;;;;;19.36;100.00;100475.88;4987504;28;20140;-73
2023/06/21 02:52:19;;;;;;;9.13;5.97;;;;;;;19.82;100.00;100551.44;4988138;28;20037;-72
2023/06/21 02:54:44;;;;;;;7.93;4.68;;;;;;;19.34;100.00;100491.03;4988576;28;20544;-72
2023/06/21 02:57:10;;;;;;;5.75;3.72;;;;;;;19.44;100.00;100506.69;4988824;28;20585;-72
2023/06/21 02:59:37;;;;;;;8.20;5.20;;;;;;;19.75;100.00;100579.22;4988914;28;20519;-72
2023/06/21 03:02:03;;;;;;;6.15;4.40;;;;;;;19.60;100.00;100555.78;4988795;28;20463;-72
2023/06/21 03:04:28;;;;;;;6.72;5.18;;;;;;;19.68;100.00;100585.69;4988558;28;20125;-72
2023/06/21 03:06:54;;;;;;;10.10;5.22;;;;;;;18.10;100.00;100306.47;4987144;28;20038;-72
2023/06/21 03:09:19;;;;;;;7.40;4.93;;;;;;;19.67;100.00;100581.28;4988450;28;20761;-73
2023/06/21 03:11:47;;;;;;;7.43;5.43;;;;;;;19.02;100.00;100492.13;4986431;28;20125;-73
2023/06/21 03:14:12;;;;;;;13.55;5.85;;;;;;;19.04;100.00;100474.34;4988703;28;20057;-72
2023/06/21 03:16:37;;;;;;;6.03;4.38;;;;;;;19.86;100.00;100617.94;4988124;28;20034;-73
2023/06/21 03:19:03;;;;;;;8.30;5.18;;;;;;;19.56;100.00;100552.34;4988470;28;20037;-73
2023/06/21 03:21:28;;;;;;;9.43;5.00;;;;;;;19.33;100.00;100618.81;4987691;28;20035;-73
2023/06/21 03:23:54;;;;;;;7.53;4.53;;;;;;;19.56;100.00;100623.34;4987963;28;20817;-73
2023/06/21 03:26:20;;;;;;;7.07;4.13;;;;;;;19.41;100.00;100598.16;4988249;28;20030;-72
2023/06/21 03:28:45;;;;;;;6.95;4.88;;;;;;;18.97;100.00;100518.00;4988349;28;20041;-72
2023/06/21 03:31:10;;;;;;;8.27;5.13;;;;;;;19.57;100.00;100611.78;4986721;28;20038;-72
2023/06/21 03:33:36;;;;;;;6.45;4.63;;;;;;;18.87;100.00;100509.47;4988060;28;20037;-72
2023/06/21 03:36:03;;;;;;;7.85;4.47;;;;;;;19.37;100.00;100615.13;4986340;28;20030;-72
2023/06/21 03:38:29;;;;;;;6.38;4.47;;;;;;;19.28;100.00;100602.97;4987746;28;20509;-72
2023/06/21 03:40:55;;;;;;;6.75;3.42;;;;;;;18.96;100.00;100540.19;4988071;28;20053;-72
2023/06/21 03:43:20;;;;;;;6.45;4.30;;;;;;;19.49;100.00;100632.47;4986530;28;20031;-72
2023/06/21 03:45:46;;;;;;;7.75;4.13;;;;;;;19.56;100.00;100626.88;4987942;28;20037;-72
2023/06/21 03:48:11;;;;;;;4.40;3.00;;;;;;;18.95;100.00;100509.22;4987808;28;20039;-73
2023/06/21 03:50:38;;;;;;;7.40;4.43;;;;;;;19.25;100.00;100613.75;4987556;28;20489;-74
2023/06/21 03:53:06;;;;;;;4.68;3.53;;;;;;;18.86;100.00;100536.97;4987925;28;20038;-73
2023/06/21 03:55:31;;;;;;;8.32;4.50;;;;;;;19.33;100.00;100603.69;4987623;28;20056;-72
2023/06/21 03:57:57;;;;;;;5.47;3.53;;;;;;;18.69;100.00;100494.94;4988016;28;20117;-73
2023/06/21 04:00:22;;;;;;;4.45;3.15;;;;;;;19.29;100.00;100604.75;4986314;28;20046;-73
2023/06/21 04:02:48;;;;;;;4.60;3.10;;;;;;;19.46;100.00;100611.28;4988040;28;20034;-73
2023/06/21 04:05:13;;;;;;;7.05;4.35;;;;;;;19.34;100.00;100568.19;4986247;28;20544;-73
2023/06/21 04:07:39;;;;;;;6.15;3.78;;;;;;;19.49;100.00;100596.06;4987151;28;20034;-73
2023/06/21 04:10:05;;;;;;;7.20;4.78;;;;;;;19.01;100.00;100545.38;4986308;28;20040;-73
2023/06/21 04:12:31;;;;;;;6.30;4.00;;;;;;;19.03;100.00;100533.75;4987423;28;20406;-72
2023/06/21 04:15:01;;;;;;;10.45;5.03;;;;;;;19.55;100.00;100619.84;4987325;28;20038;-73
2023/06/21 04:17:30;;;;;;;6.72;4.35;;;;;;;19.84;100.00;100649.09;4987294;28;20039;-73
2023/06/21 04:19:56;;;;;;;6.78;3.58;;;;;;;19.91;100.00;100622.16;4985657;28;20125;-72
2023/06/21 04:22:24;;;;;;;8.95;5.13;;;;;;;19.93;100.00;100617.66;4986431;28;20487;-73
2023/06/21 04:24:51;;;;;;;6.72;4.07;;;;;;;19.59;100.00;100538.94;4987472;28;20621;-73
2023/06/21 04:27:17;;;;;;;6.43;4.43;;;;;;;20.17;100.00;100647.03;4987538;28;20069;-72
2023/06/21 04:29:43;;;;;;;4.35;3.35;;;;;;;19.69;100.00;100552.84;4985565;28;20030;-72
2023/06/21 04:32:09;;;;;;;7.72;3.65;;;;;;;20.18;100.00;100635.41;4987365;28;20132;-73
2023/06/21 04:34:37;;;;;;;6.82;4.72;;;;;;;20.28;100.00;100655.50;4987176;28;20030;-73
2023/06/21 04:37:06;;;;;;;8.57;5.35;;;;;;;20.37;100.00;100639.16;4987271;28;20089;-72
2023/06/21 04:39:34;;;;;;;5.07;3.28;;;;;;;19.87;100.00;100531.78;4987285;28;20509;-73
2023/06/21 04:42:00;;;;;;;8.82;4.95;;;;;;;20.74;100.00;100636.94;4987299;28;20041;-73
2023/06/21 04:44:27;;;;;;;6.07;2.72;;;;;;;20.20;100.00;100542.97;4985803;28;20046;-73
2023/06/21 04:46:56;;;;;;;5.55;4.00;;;;;;;20.40;100.00;100564.41;4986990;28;20114;-73
2023/06/21 04:49:26;;;;;;;14.25;3.47;;;;;;;20.96;100.00;100639.66;4988276;28;20065;-73
2023/06/21 04:51:57;;;;;;;6.65;4.03;;;;;;;20.60;100.00;100566.34;4990490;28;20041;-73
2023/06/21 04:54:26;;;;;;;4.93;3.33;;;;;;;21.26;100.00;100658.91;4990960;28;20098;-73
2023/06/21 04:56:52;;;;;;;5.07;3.25;;;;;;;20.94;100.00;100572.13;4990622;28;20124;-73
2023/06/21 04:59:17;;;;;;;4.38;3.22;;;;;;;21.54;100.00;100664.03;4989134;28;20042;-73
2023/06/21 05:01:44;;;;;;;7.15;3.85;;;;;;;21.62;100.00;100650.34;4989121;28;20045;-73
2023/06/21 05:04:09;;;;;;;7.20;3.63;;;;;;;21.41;100.00;100558.66;4990996;28;20030;-73
2023/06/21 05:06:35;;;;;;;4.82;2.83;;;;;;;22.13;100.00;100641.88;4992544;28;20038;-71
2023/06/21 05:09:01;;;;;;;10.63;4.60;;;;;;;22.05;100.00;100565.63;4989502;28;20054;-74
2023/06/21 05:11:27;;;;;;;5.65;3.65;;;;;;;22.22;100.00;100623.69;4989517;28;20034;-74
2023/06/21 05:13:52;;;;;;;5.03;3.25;;;;;;;21.41;100.00;100497.25;4988993;28;20065;-72
2023/06/21 05:16:18;;;;;;;8.00;2.90;;;;;;;22.91;100.00;100648.13;4976418;28;20063;-73
2023/06/21 05:18:45;;;;;;;4.43;3.20;;;;;;;23.09;100.00;100584.84;4990490;28;20113;-73
2023/06/21 05:21:11;;;;;;;5.97;2.65;;;;;;;23.66;100.00;100575.75;4989810;28;20038;-72
2023/06/21 05:23:36;;;;;;;6.60;4.00;;;;;;;24.14;100.00;100670.66;4989763;28;20035;-72
2023/06/21 05:26:02;;;;;;;5.18;3.20;;;;;;;24.81;100.00;100664.38;4990617;28;20034;-72
2023/06/21 05:28:27;;;;;;;4.13;2.80;;;;;;;24.89;100.00;100637.13;4989912;28;20037;-73
2023/06/21 05:30:52;;;;;;;7.13;3.33;;;;;;;25.28;100.00;100644.75;4989378;28;20461;-73
2023/06/21 05:33:18;;;;;;;13.13;3.25;;;;;;;25.49;100.00;100664.13;4990105;28;20042;-73
2023/06/21 05:35:43;;;;;;;7.85;3.17;;;;;;;25.41;100.00;100599.22;4989650;28;20074;-73
2023/06/21 05:38:09;;;;;;;6.45;3.35;;;;;;;25.80;100.00;100654.28;4989652;28;20027;-73
2023/06/21 05:40:34;;;;;;;4.90;2.92;;;;;;;26.00;100.00;100642.34;4988069;28;20176;-73
2023/06/21 05:43:04;;;;;;;3.97;2.50;;;;;;;26.28;100.00;100667.56;4990152;28;20034;-73
2023/06/21 05:45:29;;;;;;;11.60;3.05;;;;;;;26.08;100.00;100596.13;4989445;28;20022;-72
2023/06/21 05:47:57;;;;;;;5.28;2.83;;;;;;;26.89;100.00;100684.41;4988513;28;20046;-72
2023/06/21 05:50:22;;;;;;;3.97;2.40;;;;;;;26.91;100.00;100677.94;4989651;28;20038;-71
2023/06/21 05:52:48;;;;;;;5.03;2.92;;;;;;;26.46;100.00;100592.91;4988932;28;20030;-73
2023/06/21 05:55:13;;;;;;;3.58;2.03;;;;;;;27.12;100.00;100681.09;4989474;28;20060;-72
2023/06/21 05:57:39;;;;;;;6.00;3.00;;;;;;;26.94;100.00;100579.94;4988454;28;20034;-73
2023/06/21 06:00:08;;;;;;;6.18;3.50;;;;;;;27.08;100.00;100593.34;4989592;28;20348;-72
2023/06/21 06:02:34;;;;;;;4.43;2.78;;;;;;;27.65;99.46;100667.78;4989701;28;20080;-73
2023/06/21 06:04:59;;;;;;;3.40;2.22;;;;;;;27.42;98.67;100666.59;4989919;28;20034;-72
2023/06/21 06:07:25;;;;;;;3.83;2.67;;;;;;;27.29;96.85;100572.22;4988231;28;20482;-73
2023/06/21 06:09:50;;;;;;;3.97;1.98;;;;;;;27.52;100.00;100604.84;4989228;28;20418;-73
2023/06/21 06:12:21;;;;;;;4.45;2.78;;;;;;;27.63;100.00;100639.16;4989933;28;20030;-73
2023/06/21 06:14:47;;;;;;;3.70;3.13;;;;;;;27.58;100.00;100593.63;4988725;28;20031;-73
2023/06/21 06:17:16;;;;;;;6.45;3.22;;;;;;;27.47;100.00;100589.00;4988007;28;20552;-73
2023/06/21 06:19:42;;;;;;;3.88;2.33;;;;;;;27.90;100.00;100648.09;4987516;28;20365;-74
2023/06/21 06:22:08;;;;;;;6.88;3.60;;;;;;;28.04;100.00;100657.94;4988647;28;20789;-73
2023/06/21 06:24:33;;;;;;;3.63;2.35;;;;;;;28.04;100.00;100663.31;4988022;28;20034;-73
2023/06/21 06:26:59;;;;;;;3.63;2.38;;;;;;;27.56;100.00;100553.31;4988993;28;20038;-74
2023/06/21 06:29:24;;;;;;;5.45;2.65;;;;;;;27.65;99.76;100564.41;4988749;28;20049;-74
2023/06/21 06:31:51;;;;;;;2.63;1.98;;;;;;;28.32;89.99;100673.06;4989037;28;20088;-73
2023/06/21 06:34:17;;;;;;;4.35;2.63;;;;;;;26.86;97.63;100571.50;4988975;28;20517;-73
2023/06/21 06:36:42;;;;;;;4.32;2.05;;;;;;;27.47;97.12;100642.91;4987682;28;20062;-73
2023/06/21 06:39:09;;;;;;;4.57;2.70;;;;;;;27.61;88.77;100660.84;4988905;28;20049;-73
2023/06/21 06:41:34;;;;;;;3.97;2.67;;;;;;;26.93;97.58;100573.69;4988768;28;20113;-73
2023/06/21 06:44:00;;;;;;;6.82;2.88;;;;;;;27.35;87.70;100671.53;4975681;28;20026;-72
2023/06/21 06:46:25;;;;;;;6.38;3.47;;;;;;;26.99;96.19;100580.47;4988838;28;20030;-73
2023/06/21 06:48:51;;;;;;;4.53;2.33;;;;;;;26.85;91.70;100573.31;4989240;28;20095;-73
2023/06/21 06:51:16;;;;;;;3.92;2.72;;;;;;;27.38;78.75;100613.00;4988817;28;20042;-73
2023/06/21 06:53:42;;;;;;;3.00;2.17;;;;;;;27.55;84.35;100659.41;4989275;28;20386;-74
2023/06/21 06:56:07;;;;;;;4.53;2.33;;;;;;;26.54;87.41;100534.06;4988482;28;20149;-74
2023/06/21 06:58:35;;;;;;;5.25;2.42;;;;;;;27.26;79.15;100658.66;4988755;28;20041;-73
2023/06/21 07:01:03;;;;;;;4.00;2.30;;;;;;;26.31;84.54;100458.34;4988386;28;20147;-73
2023/06/21 07:03:29;;;;;;;4.75;2.60;;;;;;;27.31;79.86;100591.00;4988548;28;20042;-74
2023/06/21 07:05:55;;;;;;;7.55;2.83;;;;;;;28.12;77.03;100650.19;4988406;28;20038;-74
2023/06/21 07:08:20;;;;;;;3.45;2.05;;;;;;;27.79;75.43;100594.88;4988405;28;20123;-74
2023/06/21 07:10:46;;;;;;;4.13;2.38;;;;;;;27.46;76.50;100587.25;4988665;28;20425;-74
2023/06/21 07:13:11;;;;;;;3.83;2.83;;;;;;;27.75;77.77;100670.69;4987147;28;20034;-73
2023/06/21 07:15:37;;;;;;;3.35;1.45;;;;;;;27.55;74.11;100594.72;4988267;28;20418;-72
2023/06/21 07:18:02;;;;;;;4.88;2.90;;;;;;;28.05;72.37;100664.19;4988049;28;20430;-72
2023/06/21 07:20:28;;;;;;;5.30;1.90;;;;;;;27.44;71.18;100578.44;4987796;28;20433;-73
2023/06/21 07:22:53;;;;;;;2.75;1.80;;;;;;;27.49;74.84;100630.19;4987489;28;20444;-74
2023/06/21 07:25:19;;;;;;;3.10;2.08;;;;;;;27.65;65.71;100635.41;4988038;28;20065;-72
2023/06/21 07:27:45;;;;;;;2.58;1.48;;;;;;;28.07;62.48;100665.81;4987238;28;20042;-73
2023/06/21 07:30:12;;;;;;;3.08;1.75;;;;;;;27.82;57.62;100569.53;4988167;28;20030;-74
2023/06/21 07:32:39;;;;;;;3.13;2.03;;;;;;;28.13;58.38;100656.44;4988150;28;20093;-74
2023/06/21 07:35:05;;;;;;;2.72;1.73;;;;;;;27.90;59.59;100644.53;4987266;28;20050;-73
2023/06/21 07:37:31;;;;;;;3.30;2.35;;;;;;;27.24;58.12;100616.63;4987415;28;20057;-74
2023/06/21 07:39:57;;;;;;;6.40;1.77;;;;;;;27.39;63.29;100623.66;4986403;28;20133;-74
2023/06/21 07:42:24;;;;;;;4.15;1.88;;;;;;;27.22;63.89;100565.53;4986213;28;20030;-74
2023/06/21 07:44:54;;;;;;;6.80;2.75;;;;;;;27.30;63.97;100635.94;4987563;28;20117;-74
2023/06/21 07:47:20;;;;;;;3.50;2.22;;;;;;;27.10;69.33;100558.22;4988203;28;20041;-74
2023/06/21 07:49:46;;;;;;;4.20;2.10;;;;;;;27.55;66.87;100583.06;4987789;28;20034;-74
2023/06/21 07:52:11;;;;;;;2.78;1.95;;;;;;;27.86;63.94;100653.81;4986966;28;20476;-74
2023/06/21 07:54:37;;;;;;;4.95;2.25;;;;;;;27.70;63.17;100651.28;4987734;28;20542;-74
2023/06/21 07:57:03;;;;;;;5.90;3.03;;;;;;;28.23;64.01;100675.53;4988708;28;20054;-74
2023/06/21 07:59:30;;;;;;;16.95;3.05;;;;;;;27.37;63.50;100574.41;4988047;28;20030;-73
2023/06/21 08:01:55;;;;;;;2.95;1.67;;;;;;;28.22;63.72;100672.00;4987892;28;20049;-73
2023/06/21 08:04:21;;;;;;;3.38;2.15;;;;;;;27.44;68.08;100634.13;4987975;28;20027;-73
2023/06/21 08:06:46;;;;;;;3.72;2.30;;;;;;;27.38;64.27;100577.97;4986299;28;20100;-73
2023/06/21 08:09:12;;;;;;;3.47;2.30;;;;;;;28.08;60.22;100666.69;4987581;28;20034;-73
2023/06/21 08:11:37;;;;;;;3.95;2.88;;;;;;;28.07;62.98;100575.91;4986944;28;20034;-74
2023/06/21 08:14:03;;;;;;;3.20;2.15;;;;;;;28.72;60.84;100618.94;4987475;28;20092;-73
2023/06/21 08:16:28;;;;;;;4.53;2.40;;;;;;;27.95;67.75;100553.34;4985616;28;20034;-72
2023/06/21 08:18:54;;;;;;;2.95;1.85;;;;;;;28.39;65.51;100565.53;4987869;28;20033;-74
2023/06/21 08:21:19;;;;;;;2.50;1.90;;;;;;;28.78;63.71;100629.31;4987005;28;20045;-73
2023/06/21 08:23:45;;;;;;;4.00;2.47;;;;;;;29.70;66.31;100653.22;4986345;28;20038;-74
2023/06/21 08:26:10;;;;;;;6.07;3.03;;;;;;;29.72;59.27;100652.09;4987120;28;20045;-73
2023/06/21 08:28:36;;;;;;;3.95;2.42;;;;;;;29.59;59.69;100616.97;4987411;28;20040;-73
2023/06/21 08:31:02;;;;;;;7.43;2.80;;;;;;;29.06;58.94;100584.03;4987230;28;20030;-74
2023/06/21 08:33:27;;;;;;;3.47;2.63;;;;;;;28.67;60.06;100658.94;4987079;28;20092;-73
2023/06/21 08:35:53;;;;;;;3.33;2.58;;;;;;;28.18;61.38;100603.00;4987321;28;20046;-73
2023/06/21 08:38:18;;;;;;;3.33;2.22;;;;;;;28.49;59.07;100655.69;4987776;28;20489;-73
2023/06/21 08:40:45;;;;;;;3.20;1.95;;;;;;;28.82;56.03;100649.72;4982943;28;20452;-73
2023/06/21 08:43:11;;;;;;;3.72;2.15;;;;;;;29.57;56.37;100669.47;4968326;28;20082;-73
2023/06/21 08:45:37;;;;;;;3.42;1.90;;;;;;;29.60;59.14;100580.84;4974752;28;20038;-74
2023/06/21 08:48:05;;;;;;;3.90;2.13;;;;;;;29.33;58.75;100586.53;4986743;28;20038;-73
2023/06/21 08:50:37;;;;;;;4.38;2.63;;;;;;;28.79;58.08;100595.91;4987312;28;20037;-72
2023/06/21 08:53:06;;;;;;;2.90;2.28;;;;;;;29.92;58.30;100609.09;4986978;28;20050;-73
2023/06/21 08:55:35;;;;;;;2.55;1.85;;;;;;;30.62;52.09;100659.53;4986920;28;20136;-72
2023/06/21 08:58:06;;;;;;;3.40;2.00;;;;;;;30.35;53.48;100573.28;4985395;28;20092;-73
2023/06/21 09:00:41;;;;;;;3.35;2.28;;;;;;;29.72;56.25;100622.34;4986891;28;20045;-73
2023/06/21 09:03:13;;;;;;;3.63;2.00;;;;;;;29.11;55.96;100575.63;4987191;28;20038;-73
2023/06/21 09:05:53;;;;;;;2.73;1.80;;;;;;;30.26;51.44;100654.22;4986563;28;20073;-75
2023/06/21 09:08:19;;;;;;;3.22;2.05;;;;;;;30.26;52.24;100562.19;4987138;28;20034;-73
2023/06/21 09:10:50;;;;;;;4.63;2.45;;;;;;;30.84;51.82;100648.72;4987311;28;20036;-73
2023/06/21 09:13:19;;;;;;;4.80;2.38;;;;;;;29.82;49.99;100568.38;4987524;28;20097;-73
2023/06/21 09:15:47;;;;;;;3.92;2.50;;;;;;;30.42;50.38;100553.69;4987341;28;20128;-73
2023/06/21 09:18:13;;;;;;;3.92;2.20;;;;;;;30.20;51.38;100611.34;4987163;28;20038;-73
2023/06/21 09:20:40;;;;;;;3.45;2.25;;;;;;;29.44;54.59;100656.00;4985129;28;20738;-72
2023/06/21 09:23:06;;;;;;;4.32;3.00;;;;;;;29.45;55.96;100646.91;4986725;28;20050;-74
2023/06/21 09:25:32;;;;;;;4.32;3.13;;;;;;;29.44;53.54;100554.13;4987070;28;20030;-73
2023/06/21 09:27:57;;;;;;;3.75;1.98;;;;;;;31.62;53.07;100644.09;4986836;28;20030;-74
2023/06/21 09:30:23;;;;;;;2.88;1.80;;;;;;;31.08;50.19;100635.00;4985409;28;20034;-73
2023/06/21 09:32:53;;;;;;;2.97;1.90;;;;;;;30.11;49.53;100500.25;4986816;28;20465;-73
2023/06/21 09:35:20;;;;;;;5.25;2.92;;;;;;;30.64;47.21;100495.88;4987679;28;20042;-74
2023/06/21 09:37:45;;;;;;;3.85;2.05;;;;;;;30.05;48.16;100534.94;4990016;28;20045;-73
2023/06/21 09:40:13;;;;;;;3.58;2.40;;;;;;;31.46;49.20;100644.53;4987981;28;20030;-73
2023/06/21 09:42:44;;;;;;;4.88;2.92;;;;;;;31.51;46.18;100555.47;4989482;28;20038;-73
2023/06/21 09:45:18;;;;;;;4.13;2.47;;;;;;;31.55;46.90;100581.34;4987965;28;20034;-73
2023/06/21 09:47:43;;;;;;;3.45;2.67;;;;;;;32.64;46.03;100641.63;4990011;28;20342;-74
2023/06/21 09:50:10;;;;;;;6.15;2.83;;;;;;;31.63;45.96;100628.66;4989929;28;20482;-73
2023/06/21 09:52:36;;;;;;;4.88;2.75;;;;;;;32.65;47.01;100626.19;4989174;28;20046;-73
2023/06/21 09:55:05;;;;;;;3.38;1.75;;;;;;;33.37;42.56;100642.25;4989232;28;20069;-73
2023/06/21 09:57:32;;;;;;;3.50;2.47;;;;;;;32.99;43.19;100641.16;4990057;28;20065;-73
2023/06/21 10:00:05;;;;;;;2.47;2.10;;;;;;;32.80;45.67;100638.38;4987897;28;20092;-73
2023/06/21 10:02:37;;;;;;;3.70;2.88;;;;;;;33.05;43.70;100569.06;4989446;28;20479;-74
2023/06/21 10:05:03;;;;;;;3.80;2.30;;;;;;;31.77;46.04;100571.34;4990091;28;20557;-74
2023/06/21 10:07:29;;;;;;;5.00;3.08;;;;;;;31.92;43.78;100563.75;4989608;28;20053;-73
2023/06/21 10:09:55;;;;;;;6.50;2.05;;;;;;;32.40;45.50;100617.44;4989621;28;20038;-73
2023/06/21 10:12:20;;;;;;;3.28;2.42;;;;;;;32.83;43.53;100520.34;4988878;28;20034;-75
2023/06/21 10:14:46;;;;;;;3.22;1.83;;;;;;;32.52;44.00;100588.38;4989794;28;20501;-74
2023/06/21 10:17:12;;;;;;;4.78;2.75;;;;;;;31.84;45.06;100522.84;4984983;28;20088;-74
2023/06/21 10:19:42;;;;;;;2.97;2.47;;;;;;;31.61;46.09;100598.97;4993429;28;20046;-74
2023/06/21 10:22:11;;;;;;;4.07;2.67;;;;;;;31.24;47.43;100628.31;4981747;28;20155;-74
2023/06/21 10:24:44;;;;;;;4.15;2.58;;;;;;;30.27;47.18;100546.78;4989455;28;20104;-73
2023/06/21 10:27:10;;;;;;;3.03;1.80;;;;;;;31.10;45.72;100534.59;4989256;28;20170;-74
2023/06/21 10:29:39;;;;;;;4.18;2.97;;;;;;;32.76;44.51;100515.50;4987457;28;20050;-75
2023/06/21 10:32:05;;;;;;;3.70;2.55;;;;;;;32.17;41.82;100612.22;4989252;28;20086;-75
2023/06/21 10:34:42;;;;;;;4.10;3.08;;;;;;;31.40;42.67;100512.16;4987678;28;20127;-74
2023/06/21 10:37:20;;;;;;;3.72;2.20;;;;;;;30.24;44.74;100504.56;4987060;28;20138;-73
2023/06/21 10:39:53;;;;;;;4.75;3.30;;;;;;;32.85;46.10;100592.63;4989119;28;20510;-75
2023/06/21 10:42:20;;;;;;;10.90;3.60;;;;;;;33.33;43.09;100493.03;4987664;28;20034;-73
2023/06/21 10:44:47;;;;;;;3.13;2.08;;;;;;;33.49;44.97;100596.72;4989491;28;20045;-75
2023/06/21 10:47:14;;;;;;;3.25;2.80;;;;;;;33.10;43.14;100454.41;4975643;28;20046;-76
2023/06/21 10:49:40;;;;;;;3.67;2.65;;;;;;;33.82;42.20;100504.69;4988741;28;20038;-74
2023/06/21 10:52:08;;;;;;;4.20;2.72;;;;;;;33.78;41.90;100523.19;4988136;28;20042;-74
2023/06/21 10:54:34;;;;;;;9.55;3.17;;;;;;;32.47;42.23;100549.84;4988790;28;20029;-73
2023/06/21 10:57:00;;;;;;;2.90;2.40;;;;;;;32.78;41.52;100595.03;4986990;28;20418;-74
2023/06/21 10:59:26;;;;;;;3.22;2.50;;;;;;;31.97;41.92;100599.53;4988727;28;20077;-72
2023/06/21 11:01:53;;;;;;;4.43;2.80;;;;;;;32.59;41.55;100573.22;4987423;28;20030;-73
2023/06/21 11:04:18;;;;;;;3.90;2.63;;;;;;;33.22;41.39;100573.81;4988171;28;20057;-73
2023/06/21 11:06:44;;;;;;;3.72;2.45;;;;;;;31.26;42.88;100516.03;4988626;28;20038;-73
2023/06/21 11:09:16;;;;;;;3.40;2.20;;;;;;;32.13;40.84;100574.59;4988101;28;20375;-73
2023/06/21 11:11:52;;;;;;;4.43;2.65;;;;;;;30.74;45.27;100503.25;4988615;28;20547;-74
2023/06/21 11:14:31;;;;;;;3.75;2.75;;;;;;;31.81;42.27;100521.25;4988373;28;20088;-72
2023/06/21 11:17:14;;;;;;;3.15;2.25;;;;;;;33.01;42.94;100575.75;4970457;28;20034;-73
2023/06/21 11:19:43;;;;;;;5.78;2.72;;;;;;;33.38;42.40;100526.09;4968213;28;20058;-73